Creek Data

    Home     View Charts     View Raw Data     Messages

ID Distance Battery Voltage Battery Current Internal Temp Internal Humidity External Temp Solar Input rssi snr Time Stamp Record
34783 0.0 4.09 49 59 39 59 4.5 -77 7 03/12/2025 01:31 PM 16523
34782 0.0 4.02 5 61 38 60 5.1 -74 9 03/12/2025 01:15 PM 16522
34781 0.0 4.02 5 61 37 62 5.1 -76 9 03/12/2025 01:00 PM 16521
34780 0.0 4.02 5 57 39 58 5.1 -77 8 03/12/2025 12:45 PM 16520
34779 0.0 4.02 0 55 40 56 5.1 -75 9 03/12/2025 12:30 PM 16519
34778 0.0 4.02 5 55 40 55 5.1 -79 8 03/12/2025 12:15 PM 16518
34777 0.0 4.02 0 57 39 56 5.1 -73 9 03/12/2025 12:00 PM 16517
34776 15.4 4.02 0 57 39 56 5.1 -75 8 03/12/2025 11:45 AM 16516
34775 0.0 4.02 0 58 38 57 5.1 -74 9 03/12/2025 11:30 AM 16515
34774 0.0 4.02 0 58 38 57 5.1 -74 8 03/12/2025 11:15 AM 16514
34773 0.0 4.02 5 57 38 57 5.1 -74 8 03/12/2025 11:00 AM 16513
34772 0.0 4.02 0 56 39 56 5.1 -73 8 03/12/2025 10:45 AM 16512
34771 0.0 4.14 53 56 39 56 4.5 -74 8 03/12/2025 10:30 AM 16511
34770 0.0 4.07 25 56 38 56 4.5 -75 7 03/12/2025 10:16 AM 16510
34769 0.0 4.09 36 56 38 56 4.5 -74 8 03/12/2025 10:00 AM 16509
34768 0.0 4.10 28 57 38 56 4.5 -75 8 03/12/2025 09:45 AM 16508
34767 15.4 3.99 7 57 37 58 5.1 -75 8 03/12/2025 09:30 AM 16507
34766 0.0 3.99 0 56 36 56 5.1 -74 9 03/12/2025 09:15 AM 16506
34765 0.0 3.99 0 55 36 56 5.1 -76 8 03/12/2025 09:00 AM 16505
34764 15.4 3.98 7 54 36 55 5.1 -73 8 03/12/2025 08:45 AM 16504
34763 0.0 4.10 69 51 38 53 4.5 -74 8 03/12/2025 08:30 AM 16503
34762 0.0 4.01 10 50 38 51 4.5 -74 8 03/12/2025 08:16 AM 16502
34761 0.0 3.99 0 50 38 50 4.5 -73 9 03/12/2025 08:00 AM 16501
34760 0.0 3.92 -5 49 38 50 4.5 -72 7 03/12/2025 07:45 AM 16500
34759 0.0 3.91 -10 49 39 50 4.2 -71 8 03/12/2025 07:31 AM 16499